sensor_id;sensor_type;location;lat;lon;timestamp;temperature;humidity
42095;DHT22;27753;55.724;37.612;2023-03-01T00:00:43;-4.30;83.00
42095;DHT22;27753;55.724;37.612;2023-03-01T00:03:12;-4.30;83.20
42095;DHT22;27753;55.724;37.612;2023-03-01T00:05:44;-4.30;83.10
42095;DHT22;27753;55.724;37.612;2023-03-01T00:08:11;-4.30;83.20
42095;DHT22;27753;55.724;37.612;2023-03-01T00:10:37;-4.40;83.10
42095;DHT22;27753;55.724;37.612;2023-03-01T00:13:03;-4.40;82.90
42095;DHT22;27753;55.724;37.612;2023-03-01T00:15:31;-4.40;82.70
42095;DHT22;27753;55.724;37.612;2023-03-01T00:17:57;-4.40;82.80
42095;DHT22;27753;55.724;37.612;2023-03-01T00:20:23;-4.40;82.90
42095;DHT22;27753;55.724;37.612;2023-03-01T00:22:49;-4.40;83.00
42095;DHT22;27753;55.724;37.612;2023-03-01T00:25:15;-4.40;83.10
42095;DHT22;27753;55.724;37.612;2023-03-01T00:27:41;-4.50;83.20
42095;DHT22;27753;55.724;37.612;2023-03-01T00:30:07;-4.50;83.20
42095;DHT22;27753;55.724;37.612;2023-03-01T00:32:33;-4.50;83.30
42095;DHT22;27753;55.724;37.612;2023-03-01T00:34:59;-4.50;83.50
42095;DHT22;27753;55.724;37.612;2023-03-01T00:37:25;-4.50;83.60
42095;DHT22;27753;55.724;37.612;2023-03-01T00:39:51;-4.50;83.70
42095;DHT22;27753;55.724;37.612;2023-03-01T00:42:17;-4.60;83.70
42095;DHT22;27753;55.724;37.612;2023-03-01T00:44:43;-4.60;83.70
42095;DHT22;27753;55.724;37.612;2023-03-01T00:47:09;-4.60;83.60
42095;DHT22;27753;55.724;37.612;2023-03-01T00:49:35;-4.50;83.50
42095;DHT22;27753;55.724;37.612;2023-03-01T00:52:01;-4.50;83.30
42095;DHT22;27753;55.724;37.612;2023-03-01T00:54:26;-4.50;83.30
42095;DHT22;27753;55.724;37.612;2023-03-01T00:56:52;-4.60;83.30
42095;DHT22;27753;55.724;37.612;2023-03-01T00:59:18;-4.60;83.50
42095;DHT22;27753;55.724;37.612;2023-03-01T01:01:44;-4.60;83.60
42095;DHT22;27753;55.724;37.612;2023-03-01T01:04:12;-4.60;83.70
42095;DHT22;27753;55.724;37.612;2023-03-01T01:06:43;-4.60;83.70
42095;DHT22;27753;55.724;37.612;2023-03-01T01:09:14;-4.60;83.80
42095;DHT22;27753;55.724;37.612;2023-03-01T01:11:45;-4.60;83.90
42095;DHT22;27753;55.724;37.612;2023-03-01T01:14:11;-4.60;83.80
42095;DHT22;27753;55.724;37.612;2023-03-01T01:16:37;-4.70;84.10
42095;DHT22;27753;55.724;37.612;2023-03-01T01:19:03;-4.70;84.20
42095;DHT22;27753;55.724;37.612;2023-03-01T01:21:29;-4.70;84.20
42095;DHT22;27753;55.724;37.612;2023-03-01T01:23:56;-4.70;84.30
42095;DHT22;27753;55.724;37.612;2023-03-01T01:26:26;-4.70;84.70
42095;DHT22;27753;55.724;37.612;2023-03-01T01:28:53;-4.80;84.70
42095;DHT22;27753;55.724;37.612;2023-03-01T01:31:20;-4.80;84.60
42095;DHT22;27753;55.724;37.612;2023-03-01T01:33:46;-4.80;84.60
42095;DHT22;27753;55.724;37.612;2023-03-01T01:36:12;-4.80;84.60
42095;DHT22;27753;55.724;37.612;2023-03-01T01:38:39;-4.80;84.60
42095;DHT22;27753;55.724;37.612;2023-03-01T01:41:05;-4.80;84.60
42095;DHT22;27753;55.724;37.612;2023-03-01T01:43:38;-4.80;84.70
42095;DHT22;27753;55.724;37.612;2023-03-01T01:48:45;-4.80;84.70
42095;DHT22;27753;55.724;37.612;2023-03-01T01:51:18;-4.80;84.80
42095;DHT22;27753;55.724;37.612;2023-03-01T01:53:49;-4.80;84.90
42095;DHT22;27753;55.724;37.612;2023-03-01T01:56:17;-4.80;84.90
42095;DHT22;27753;55.724;37.612;2023-03-01T01:59:01;-4.70;84.80
42095;DHT22;27753;55.724;37.612;2023-03-01T02:01:27;-4.70;84.90
42095;DHT22;27753;55.724;37.612;2023-03-01T02:03:53;-4.70;84.60
42095;DHT22;27753;55.724;37.612;2023-03-01T02:06:31;-4.60;84.80
42095;DHT22;27753;55.724;37.612;2023-03-01T02:09:02;-4.60;84.70
42095;DHT22;27753;55.724;37.612;2023-03-01T02:11:30;-4.50;84.80
42095;DHT22;27753;55.724;37.612;2023-03-01T02:13:57;-4.60;84.60
42095;DHT22;27753;55.724;37.612;2023-03-01T02:16:22;-4.60;84.50
42095;DHT22;27753;55.724;37.612;2023-03-01T02:18:49;-4.60;84.60
42095;DHT22;27753;55.724;37.612;2023-03-01T02:23:48;-4.70;84.80
42095;DHT22;27753;55.724;37.612;2023-03-01T02:26:26;-4.70;84.80
42095;DHT22;27753;55.724;37.612;2023-03-01T02:28:54;-4.70;85.00
42095;DHT22;27753;55.724;37.612;2023-03-01T02:31:35;-4.80;85.30
42095;DHT22;27753;55.724;37.612;2023-03-01T02:34:10;-4.80;85.50
42095;DHT22;27753;55.724;37.612;2023-03-01T02:37:08;-4.80;85.60
42095;DHT22;27753;55.724;37.612;2023-03-01T02:39:44;-4.80;85.90
42095;DHT22;27753;55.724;37.612;2023-03-01T02:42:20;-4.90;86.00
42095;DHT22;27753;55.724;37.612;2023-03-01T02:44:49;-4.90;86.20
42095;DHT22;27753;55.724;37.612;2023-03-01T02:47:15;-4.90;86.30
42095;DHT22;27753;55.724;37.612;2023-03-01T02:49:43;-4.90;86.40
42095;DHT22;27753;55.724;37.612;2023-03-01T02:55:03;-4.90;86.60
42095;DHT22;27753;55.724;37.612;2023-03-01T02:57:32;-5.00;86.60
42095;DHT22;27753;55.724;37.612;2023-03-01T03:00:03;-5.00;86.80
42095;DHT22;27753;55.724;37.612;2023-03-01T03:02:34;-5.00;87.00
42095;DHT22;27753;55.724;37.612;2023-03-01T03:05:12;-5.00;87.20
42095;DHT22;27753;55.724;37.612;2023-03-01T03:07:41;-5.00;87.20
42095;DHT22;27753;55.724;37.612;2023-03-01T03:10:13;-5.00;87.20
42095;DHT22;27753;55.724;37.612;2023-03-01T03:12:40;-5.00;87.30
42095;DHT22;27753;55.724;37.612;2023-03-01T03:15:08;-5.00;87.40
42095;DHT22;27753;55.724;37.612;2023-03-01T03:17:38;-5.10;87.50
42095;DHT22;27753;55.724;37.612;2023-03-01T03:20:06;-5.10;87.80
42095;DHT22;27753;55.724;37.612;2023-03-01T03:22:37;-5.10;88.00
42095;DHT22;27753;55.724;37.612;2023-03-01T03:25:03;-5.20;88.00
42095;DHT22;27753;55.724;37.612;2023-03-01T03:27:29;-5.10;88.20
42095;DHT22;27753;55.724;37.612;2023-03-01T03:29:57;-5.20;88.20
42095;DHT22;27753;55.724;37.612;2023-03-01T03:32:23;-5.20;88.40
42095;DHT22;27753;55.724;37.612;2023-03-01T03:34:49;-5.20;88.50
42095;DHT22;27753;55.724;37.612;2023-03-01T03:37:15;-5.20;88.60
42095;DHT22;27753;55.724;37.612;2023-03-01T03:39:59;-5.20;88.80
42095;DHT22;27753;55.724;37.612;2023-03-01T03:42:25;-5.20;88.90
42095;DHT22;27753;55.724;37.612;2023-03-01T03:44:51;-5.20;89.10
42095;DHT22;27753;55.724;37.612;2023-03-01T03:47:16;-5.30;89.30
42095;DHT22;27753;55.724;37.612;2023-03-01T03:49:42;-5.30;89.40
42095;DHT22;27753;55.724;37.612;2023-03-01T03:52:08;-5.30;89.60
42095;DHT22;27753;55.724;37.612;2023-03-01T03:54:40;-5.30;89.80
42095;DHT22;27753;55.724;37.612;2023-03-01T03:57:06;-5.30;89.80
42095;DHT22;27753;55.724;37.612;2023-03-01T03:59:32;-5.30;89.70
42095;DHT22;27753;55.724;37.612;2023-03-01T04:01:58;-5.30;90.00
42095;DHT22;27753;55.724;37.612;2023-03-01T04:04:24;-5.40;89.90
42095;DHT22;27753;55.724;37.612;2023-03-01T04:06:50;-5.40;90.00
42095;DHT22;27753;55.724;37.612;2023-03-01T04:09:16;-5.40;90.10
42095;DHT22;27753;55.724;37.612;2023-03-01T04:11:42;-5.40;90.10
42095;DHT22;27753;55.724;37.612;2023-03-01T04:14:07;-5.40;90.10
42095;DHT22;27753;55.724;37.612;2023-03-01T04:16:33;-5.40;90.10
42095;DHT22;27753;55.724;37.612;2023-03-01T04:18:59;-5.40;90.10
42095;DHT22;27753;55.724;37.612;2023-03-01T04:21:26;-5.40;90.20
42095;DHT22;27753;55.724;37.612;2023-03-01T04:23:51;-5.40;90.20
42095;DHT22;27753;55.724;37.612;2023-03-01T04:26:19;-5.40;90.30
42095;DHT22;27753;55.724;37.612;2023-03-01T04:28:45;-5.40;90.30
42095;DHT22;27753;55.724;37.612;2023-03-01T04:31:16;-5.40;90.40
42095;DHT22;27753;55.724;37.612;2023-03-01T04:33:52;-5.40;90.40
42095;DHT22;27753;55.724;37.612;2023-03-01T04:36:19;-5.40;90.50
42095;DHT22;27753;55.724;37.612;2023-03-01T04:38:46;-5.40;90.50
42095;DHT22;27753;55.724;37.612;2023-03-01T04:41:14;-5.40;90.90
42095;DHT22;27753;55.724;37.612;2023-03-01T04:43:40;-5.40;90.60
42095;DHT22;27753;55.724;37.612;2023-03-01T04:46:08;-5.40;90.60
42095;DHT22;27753;55.724;37.612;2023-03-01T04:48:37;-5.40;90.60
42095;DHT22;27753;55.724;37.612;2023-03-01T04:51:04;-5.40;90.60
42095;DHT22;27753;55.724;37.612;2023-03-01T04:53:31;-5.40;90.80
42095;DHT22;27753;55.724;37.612;2023-03-01T04:56:01;-5.40;90.70
42095;DHT22;27753;55.724;37.612;2023-03-01T04:58:27;-5.40;90.70
42095;DHT22;27753;55.724;37.612;2023-03-01T05:00:54;-5.30;90.70
42095;DHT22;27753;55.724;37.612;2023-03-01T05:03:21;-5.30;90.70
42095;DHT22;27753;55.724;37.612;2023-03-01T05:05:49;-5.30;90.70
42095;DHT22;27753;55.724;37.612;2023-03-01T05:08:15;-5.30;90.70
42095;DHT22;27753;55.724;37.612;2023-03-01T05:10:52;-5.30;90.60
42095;DHT22;27753;55.724;37.612;2023-03-01T05:13:20;-5.20;90.60
42095;DHT22;27753;55.724;37.612;2023-03-01T05:15:57;-5.20;90.70
42095;DHT22;27753;55.724;37.612;2023-03-01T05:18:24;-5.20;90.70
42095;DHT22;27753;55.724;37.612;2023-03-01T05:20:54;-5.10;90.70
42095;DHT22;27753;55.724;37.612;2023-03-01T05:23:22;-5.10;90.70
42095;DHT22;27753;55.724;37.612;2023-03-01T05:25:48;-5.00;90.70
42095;DHT22;27753;55.724;37.612;2023-03-01T05:28:15;-4.90;90.50
42095;DHT22;27753;55.724;37.612;2023-03-01T05:30:43;-4.90;90.40
42095;DHT22;27753;55.724;37.612;2023-03-01T05:33:09;-4.80;90.40
42095;DHT22;27753;55.724;37.612;2023-03-01T05:35:42;-4.60;90.60
42095;DHT22;27753;55.724;37.612;2023-03-01T05:38:12;-4.50;90.40
42095;DHT22;27753;55.724;37.612;2023-03-01T05:40:48;-4.40;90.20
42095;DHT22;27753;55.724;37.612;2023-03-01T05:43:15;-4.40;90.10
42095;DHT22;27753;55.724;37.612;2023-03-01T05:45:42;-4.30;90.00
42095;DHT22;27753;55.724;37.612;2023-03-01T05:48:09;-4.30;89.80
42095;DHT22;27753;55.724;37.612;2023-03-01T05:50:39;-4.30;89.00
42095;DHT22;27753;55.724;37.612;2023-03-01T05:55:38;-4.30;89.30
42095;DHT22;27753;55.724;37.612;2023-03-01T05:58:10;-4.20;88.90
42095;DHT22;27753;55.724;37.612;2023-03-01T06:00:36;-4.20;88.80
42095;DHT22;27753;55.724;37.612;2023-03-01T06:03:03;-4.20;88.80
42095;DHT22;27753;55.724;37.612;2023-03-01T06:05:29;-4.10;88.30
42095;DHT22;27753;55.724;37.612;2023-03-01T06:07:56;-4.10;88.30
42095;DHT22;27753;55.724;37.612;2023-03-01T06:10:24;-4.10;88.30
42095;DHT22;27753;55.724;37.612;2023-03-01T06:12:50;-4.10;88.50
42095;DHT22;27753;55.724;37.612;2023-03-01T06:15:16;-4.00;88.10
42095;DHT22;27753;55.724;37.612;2023-03-01T06:17:44;-4.10;88.00
42095;DHT22;27753;55.724;37.612;2023-03-01T06:20:19;-4.10;87.50
42095;DHT22;27753;55.724;37.612;2023-03-01T06:22:46;-4.00;88.00
42095;DHT22;27753;55.724;37.612;2023-03-01T06:25:13;-4.00;88.30
42095;DHT22;27753;55.724;37.612;2023-03-01T06:27:40;-3.90;88.00
42095;DHT22;27753;55.724;37.612;2023-03-01T06:30:07;-3.90;87.70
42095;DHT22;27753;55.724;37.612;2023-03-01T06:32:33;-3.90;87.20
42095;DHT22;27753;55.724;37.612;2023-03-01T06:34:59;-3.80;87.90
42095;DHT22;27753;55.724;37.612;2023-03-01T06:37:25;-3.70;87.10
42095;DHT22;27753;55.724;37.612;2023-03-01T06:39:51;-3.60;86.90
42095;DHT22;27753;55.724;37.612;2023-03-01T06:42:17;-3.40;87.10
42095;DHT22;27753;55.724;37.612;2023-03-01T06:44:44;-3.30;86.10
42095;DHT22;27753;55.724;37.612;2023-03-01T06:47:11;-3.20;86.10
42095;DHT22;27753;55.724;37.612;2023-03-01T06:49:37;-3.20;85.60
42095;DHT22;27753;55.724;37.612;2023-03-01T06:52:06;-3.10;85.60
42095;DHT22;27753;55.724;37.612;2023-03-01T06:54:32;-3.10;85.50
42095;DHT22;27753;55.724;37.612;2023-03-01T06:56:58;-3.10;85.30
42095;DHT22;27753;55.724;37.612;2023-03-01T06:59:24;-3.20;84.70
42095;DHT22;27753;55.724;37.612;2023-03-01T07:01:50;-3.20;84.90
42095;DHT22;27753;55.724;37.612;2023-03-01T07:04:15;-3.30;84.80
42095;DHT22;27753;55.724;37.612;2023-03-01T07:06:41;-3.40;84.90
42095;DHT22;27753;55.724;37.612;2023-03-01T07:09:07;-3.40;85.10
42095;DHT22;27753;55.724;37.612;2023-03-01T07:11:33;-3.30;85.30
42095;DHT22;27753;55.724;37.612;2023-03-01T07:13:59;-3.20;85.20
42095;DHT22;27753;55.724;37.612;2023-03-01T07:16:25;-3.10;84.90
42095;DHT22;27753;55.724;37.612;2023-03-01T07:18:51;-3.20;84.80
42095;DHT22;27753;55.724;37.612;2023-03-01T07:21:17;-3.20;84.70
42095;DHT22;27753;55.724;37.612;2023-03-01T07:23:43;-3.10;84.90
42095;DHT22;27753;55.724;37.612;2023-03-01T07:26:09;-3.10;84.90
42095;DHT22;27753;55.724;37.612;2023-03-01T07:28:35;-2.90;85.40
42095;DHT22;27753;55.724;37.612;2023-03-01T07:31:03;-2.90;84.70
42095;DHT22;27753;55.724;37.612;2023-03-01T07:33:29;-3.00;84.50
42095;DHT22;27753;55.724;37.612;2023-03-01T07:35:59;-3.10;84.70
42095;DHT22;27753;55.724;37.612;2023-03-01T07:38:26;-3.30;85.20
42095;DHT22;27753;55.724;37.612;2023-03-01T07:40:52;-3.30;86.00
42095;DHT22;27753;55.724;37.612;2023-03-01T07:43:17;-2.90;86.70
42095;DHT22;27753;55.724;37.612;2023-03-01T07:45:43;-2.20;85.80
42095;DHT22;27753;55.724;37.612;2023-03-01T07:48:10;-1.60;83.20
42095;DHT22;27753;55.724;37.612;2023-03-01T07:50:36;-1.40;81.90
42095;DHT22;27753;55.724;37.612;2023-03-01T07:53:02;-1.50;81.00
42095;DHT22;27753;55.724;37.612;2023-03-01T07:55:28;-1.70;81.40
42095;DHT22;27753;55.724;37.612;2023-03-01T07:57:54;-1.80;81.90
42095;DHT22;27753;55.724;37.612;2023-03-01T08:00:20;-2.00;82.40
42095;DHT22;27753;55.724;37.612;2023-03-01T08:02:48;-2.00;83.30
42095;DHT22;27753;55.724;37.612;2023-03-01T08:05:14;-1.90;83.50
42095;DHT22;27753;55.724;37.612;2023-03-01T08:07:39;-1.80;83.50
42095;DHT22;27753;55.724;37.612;2023-03-01T08:10:06;-1.60;83.00
42095;DHT22;27753;55.724;37.612;2023-03-01T08:12:32;-1.40;82.20
42095;DHT22;27753;55.724;37.612;2023-03-01T08:14:58;-1.40;81.80
42095;DHT22;27753;55.724;37.612;2023-03-01T08:17:24;-1.30;82.00
42095;DHT22;27753;55.724;37.612;2023-03-01T08:19:49;-0.90;81.60
42095;DHT22;27753;55.724;37.612;2023-03-01T08:22:15;0.00;81.70
42095;DHT22;27753;55.724;37.612;2023-03-01T08:24:41;0.70;77.70
42095;DHT22;27753;55.724;37.612;2023-03-01T08:27:07;1.40;76.00
42095;DHT22;27753;55.724;37.612;2023-03-01T08:29:33;2.60;73.30
42095;DHT22;27753;55.724;37.612;2023-03-01T08:32:00;3.50;69.90
42095;DHT22;27753;55.724;37.612;2023-03-01T08:34:26;4.40;66.10
42095;DHT22;27753;55.724;37.612;2023-03-01T08:36:52;4.90;62.30
42095;DHT22;27753;55.724;37.612;2023-03-01T08:39:19;5.10;61.50
42095;DHT22;27753;55.724;37.612;2023-03-01T08:41:46;5.50;60.70
42095;DHT22;27753;55.724;37.612;2023-03-01T08:44:13;6.30;59.70
42095;DHT22;27753;55.724;37.612;2023-03-01T08:46:42;7.00;57.70
42095;DHT22;27753;55.724;37.612;2023-03-01T08:49:14;7.30;54.60
42095;DHT22;27753;55.724;37.612;2023-03-01T08:51:40;7.20;54.10
42095;DHT22;27753;55.724;37.612;2023-03-01T08:54:11;7.20;53.00
42095;DHT22;27753;55.724;37.612;2023-03-01T08:56:37;6.90;52.40
42095;DHT22;27753;55.724;37.612;2023-03-01T08:59:03;6.30;52.70
42095;DHT22;27753;55.724;37.612;2023-03-01T09:01:29;5.80;53.30
42095;DHT22;27753;55.724;37.612;2023-03-01T09:03:55;6.10;54.60
42095;DHT22;27753;55.724;37.612;2023-03-01T09:06:21;6.60;53.40
42095;DHT22;27753;55.724;37.612;2023-03-01T09:08:48;6.90;52.10
42095;DHT22;27753;55.724;37.612;2023-03-01T09:11:19;6.90;51.90
42095;DHT22;27753;55.724;37.612;2023-03-01T09:13:46;7.30;51.60
42095;DHT22;27753;55.724;37.612;2023-03-01T09:16:14;7.40;50.20
42095;DHT22;27753;55.724;37.612;2023-03-01T09:18:43;6.80;50.30
42095;DHT22;27753;55.724;37.612;2023-03-01T09:21:15;6.50;52.00
42095;DHT22;27753;55.724;37.612;2023-03-01T09:23:44;6.90;51.30
42095;DHT22;27753;55.724;37.612;2023-03-01T09:26:19;6.50;50.60
42095;DHT22;27753;55.724;37.612;2023-03-01T09:28:47;6.10;51.80
42095;DHT22;27753;55.724;37.612;2023-03-01T09:31:14;6.30;52.30
42095;DHT22;27753;55.724;37.612;2023-03-01T09:33:41;6.80;51.20
42095;DHT22;27753;55.724;37.612;2023-03-01T09:36:17;6.90;49.80
42095;DHT22;27753;55.724;37.612;2023-03-01T09:38:44;7.10;50.20
42095;DHT22;27753;55.724;37.612;2023-03-01T09:41:47;7.30;49.40
42095;DHT22;27753;55.724;37.612;2023-03-01T09:44:38;7.60;49.70
42095;DHT22;27753;55.724;37.612;2023-03-01T09:47:14;8.00;48.20
42095;DHT22;27753;55.724;37.612;2023-03-01T09:49:43;8.00;48.00
42095;DHT22;27753;55.724;37.612;2023-03-01T09:52:36;8.70;47.10
42095;DHT22;27753;55.724;37.612;2023-03-01T09:55:12;9.30;47.00
42095;DHT22;27753;55.724;37.612;2023-03-01T10:03:01;10.40;44.50
42095;DHT22;27753;55.724;37.612;2023-03-01T10:05:48;10.50;44.10
42095;DHT22;27753;55.724;37.612;2023-03-01T10:11:19;7.80;44.30
42095;DHT22;27753;55.724;37.612;2023-03-01T10:14:03;5.60;47.70
42095;DHT22;27753;55.724;37.612;2023-03-01T10:19:03;4.40;52.50
42095;DHT22;27753;55.724;37.612;2023-03-01T10:21:39;3.80;52.90
42095;DHT22;27753;55.724;37.612;2023-03-01T10:24:15;3.60;54.30
42095;DHT22;27753;55.724;37.612;2023-03-01T10:29:17;2.20;56.50
42095;DHT22;27753;55.724;37.612;2023-03-01T10:31:45;1.40;58.30
42095;DHT22;27753;55.724;37.612;2023-03-01T10:34:18;1.00;59.80
42095;DHT22;27753;55.724;37.612;2023-03-01T10:36:48;0.70;61.20
42095;DHT22;27753;55.724;37.612;2023-03-01T10:39:18;0.30;62.50
42095;DHT22;27753;55.724;37.612;2023-03-01T10:47:18;-0.50;64.70
42095;DHT22;27753;55.724;37.612;2023-03-01T10:49:59;-0.60;65.80
42095;DHT22;27753;55.724;37.612;2023-03-01T10:52:34;-0.60;66.50
42095;DHT22;27753;55.724;37.612;2023-03-01T10:57:37;-0.20;66.50
42095;DHT22;27753;55.724;37.612;2023-03-01T11:00:22;-0.10;66.20
42095;DHT22;27753;55.724;37.612;2023-03-01T11:03:13;0.00;66.10
42095;DHT22;27753;55.724;37.612;2023-03-01T11:06:00;0.00;66.10
42095;DHT22;27753;55.724;37.612;2023-03-01T11:08:32;-0.10;66.20
42095;DHT22;27753;55.724;37.612;2023-03-01T11:13:31;-0.10;67.00
42095;DHT22;27753;55.724;37.612;2023-03-01T11:16:15;0.10;66.70
42095;DHT22;27753;55.724;37.612;2023-03-01T11:18:59;0.10;66.50
42095;DHT22;27753;55.724;37.612;2023-03-01T11:21:27;0.20;67.20
42095;DHT22;27753;55.724;37.612;2023-03-01T11:23:54;0.40;66.60
42095;DHT22;27753;55.724;37.612;2023-03-01T11:26:21;0.40;66.20
42095;DHT22;27753;55.724;37.612;2023-03-01T11:28:52;0.50;65.70
42095;DHT22;27753;55.724;37.612;2023-03-01T11:31:19;0.50;65.80
42095;DHT22;27753;55.724;37.612;2023-03-01T11:33:56;0.60;65.80
42095;DHT22;27753;55.724;37.612;2023-03-01T11:39:12;0.20;64.60
42095;DHT22;27753;55.724;37.612;2023-03-01T11:41:43;0.00;65.20
42095;DHT22;27753;55.724;37.612;2023-03-01T11:44:22;0.00;66.10
42095;DHT22;27753;55.724;37.612;2023-03-01T12:03:23;0.30;66.00
42095;DHT22;27753;55.724;37.612;2023-03-01T12:14:55;-0.20;66.30
42095;DHT22;27753;55.724;37.612;2023-03-01T12:26:10;-0.10;66.10
42095;DHT22;27753;55.724;37.612;2023-03-01T12:37:17;0.20;67.00
42095;DHT22;27753;55.724;37.612;2023-03-01T12:45:35;0.00;66.50
42095;DHT22;27753;55.724;37.612;2023-03-01T12:50:55;-0.10;66.90
42095;DHT22;27753;55.724;37.612;2023-03-01T12:53:29;0.00;67.10
42095;DHT22;27753;55.724;37.612;2023-03-01T12:56:11;0.00;67.40
42095;DHT22;27753;55.724;37.612;2023-03-01T13:15:32;-0.30;66.40
42095;DHT22;27753;55.724;37.612;2023-03-01T13:20:47;-0.60;67.10
42095;DHT22;27753;55.724;37.612;2023-03-01T13:23:26;-0.60;67.60
42095;DHT22;27753;55.724;37.612;2023-03-01T13:26:10;-0.60;68.50
42095;DHT22;27753;55.724;37.612;2023-03-01T13:28:41;-0.60;68.90
42095;DHT22;27753;55.724;37.612;2023-03-01T13:33:49;-0.70;69.70
42095;DHT22;27753;55.724;37.612;2023-03-01T13:41:57;-0.80;70.10
42095;DHT22;27753;55.724;37.612;2023-03-01T13:46:52;-0.80;70.90
42095;DHT22;27753;55.724;37.612;2023-03-01T13:49:21;-0.80;70.90
42095;DHT22;27753;55.724;37.612;2023-03-01T13:51:49;-0.90;70.60
42095;DHT22;27753;55.724;37.612;2023-03-01T13:54:25;-0.90;70.70
42095;DHT22;27753;55.724;37.612;2023-03-01T13:56:52;-1.00;71.10
42095;DHT22;27753;55.724;37.612;2023-03-01T13:59:21;-1.00;70.80
42095;DHT22;27753;55.724;37.612;2023-03-01T14:01:57;-1.00;70.90
42095;DHT22;27753;55.724;37.612;2023-03-01T14:04:31;-1.10;71.10
42095;DHT22;27753;55.724;37.612;2023-03-01T14:07:19;-1.00;71.20
42095;DHT22;27753;55.724;37.612;2023-03-01T14:09:58;-1.10;71.20
42095;DHT22;27753;55.724;37.612;2023-03-01T14:18:08;-1.30;71.50
42095;DHT22;27753;55.724;37.612;2023-03-01T14:20:44;-1.40;72.10
42095;DHT22;27753;55.724;37.612;2023-03-01T14:23:23;-1.40;72.70
42095;DHT22;27753;55.724;37.612;2023-03-01T14:25:54;-1.50;72.80
42095;DHT22;27753;55.724;37.612;2023-03-01T14:28:31;-1.50;72.90
42095;DHT22;27753;55.724;37.612;2023-03-01T14:31:03;-1.50;73.40
42095;DHT22;27753;55.724;37.612;2023-03-01T14:33:36;-1.50;73.60
42095;DHT22;27753;55.724;37.612;2023-03-01T14:36:12;-1.50;73.80
42095;DHT22;27753;55.724;37.612;2023-03-01T14:41:25;-1.50;74.30
42095;DHT22;27753;55.724;37.612;2023-03-01T14:43:59;-1.50;74.40
42095;DHT22;27753;55.724;37.612;2023-03-01T14:46:30;-1.50;74.10
42095;DHT22;27753;55.724;37.612;2023-03-01T14:49:02;-1.60;74.20
42095;DHT22;27753;55.724;37.612;2023-03-01T14:51:29;-1.70;74.80
42095;DHT22;27753;55.724;37.612;2023-03-01T14:53:56;-1.70;74.90
42095;DHT22;27753;55.724;37.612;2023-03-01T14:56:28;-1.80;75.40
42095;DHT22;27753;55.724;37.612;2023-03-01T14:59:09;-1.80;76.00
42095;DHT22;27753;55.724;37.612;2023-03-01T15:01:36;-1.80;76.00
42095;DHT22;27753;55.724;37.612;2023-03-01T15:04:07;-1.80;76.20
42095;DHT22;27753;55.724;37.612;2023-03-01T15:06:35;-1.80;76.40
42095;DHT22;27753;55.724;37.612;2023-03-01T15:09:01;-1.80;76.50
42095;DHT22;27753;55.724;37.612;2023-03-01T15:11:29;-1.80;76.80
42095;DHT22;27753;55.724;37.612;2023-03-01T15:13:55;-1.80;77.40
42095;DHT22;27753;55.724;37.612;2023-03-01T15:16:29;-1.90;77.60
42095;DHT22;27753;55.724;37.612;2023-03-01T15:19:07;-1.80;78.00
42095;DHT22;27753;55.724;37.612;2023-03-01T15:21:36;-1.80;78.50
42095;DHT22;27753;55.724;37.612;2023-03-01T15:26:50;-2.10;81.70
42095;DHT22;27753;55.724;37.612;2023-03-01T15:29:24;-2.10;83.30
42095;DHT22;27753;55.724;37.612;2023-03-01T15:32:20;-2.20;82.90
42095;DHT22;27753;55.724;37.612;2023-03-01T15:34:48;-2.20;83.10
42095;DHT22;27753;55.724;37.612;2023-03-01T15:42:57;-2.10;82.40
42095;DHT22;27753;55.724;37.612;2023-03-01T15:45:25;-2.10;81.80
42095;DHT22;27753;55.724;37.612;2023-03-01T15:48:01;-2.10;81.10
42095;DHT22;27753;55.724;37.612;2023-03-01T15:50:33;-2.10;80.90
42095;DHT22;27753;55.724;37.612;2023-03-01T15:53:01;-2.10;80.80
42095;DHT22;27753;55.724;37.612;2023-03-01T15:55:29;-2.10;80.80
42095;DHT22;27753;55.724;37.612;2023-03-01T15:58:00;-2.00;80.70
42095;DHT22;27753;55.724;37.612;2023-03-01T16:00:28;-2.00;80.00
42095;DHT22;27753;55.724;37.612;2023-03-01T16:02:55;-2.00;79.50
42095;DHT22;27753;55.724;37.612;2023-03-01T16:05:29;-1.90;79.10
42095;DHT22;27753;55.724;37.612;2023-03-01T16:07:56;-1.90;79.10
42095;DHT22;27753;55.724;37.612;2023-03-01T16:10:23;-1.90;79.00
42095;DHT22;27753;55.724;37.612;2023-03-01T16:12:50;-1.90;78.60
42095;DHT22;27753;55.724;37.612;2023-03-01T16:15:26;-2.00;78.60
42095;DHT22;27753;55.724;37.612;2023-03-01T16:17:53;-2.00;78.00
42095;DHT22;27753;55.724;37.612;2023-03-01T16:20:21;-2.00;77.90
42095;DHT22;27753;55.724;37.612;2023-03-01T16:22:48;-2.00;78.50
42095;DHT22;27753;55.724;37.612;2023-03-01T16:25:16;-1.90;77.90
42095;DHT22;27753;55.724;37.612;2023-03-01T16:27:43;-1.90;78.00
42095;DHT22;27753;55.724;37.612;2023-03-01T16:30:09;-1.90;78.10
42095;DHT22;27753;55.724;37.612;2023-03-01T16:32:43;-1.90;78.00
42095;DHT22;27753;55.724;37.612;2023-03-01T16:35:11;-2.00;78.20
42095;DHT22;27753;55.724;37.612;2023-03-01T16:37:38;-2.00;78.60
42095;DHT22;27753;55.724;37.612;2023-03-01T16:40:05;-2.00;78.90
42095;DHT22;27753;55.724;37.612;2023-03-01T16:42:35;-2.00;79.80
42095;DHT22;27753;55.724;37.612;2023-03-01T16:45:02;-2.00;80.30
42095;DHT22;27753;55.724;37.612;2023-03-01T16:47:29;-2.10;80.70
42095;DHT22;27753;55.724;37.612;2023-03-01T16:49:55;-2.10;80.70
42095;DHT22;27753;55.724;37.612;2023-03-01T16:52:22;-2.10;81.00
42095;DHT22;27753;55.724;37.612;2023-03-01T16:54:48;-2.00;81.10
42095;DHT22;27753;55.724;37.612;2023-03-01T16:57:14;-2.10;81.00
42095;DHT22;27753;55.724;37.612;2023-03-01T16:59:40;-2.00;81.10
42095;DHT22;27753;55.724;37.612;2023-03-01T17:02:08;-2.10;81.00
42095;DHT22;27753;55.724;37.612;2023-03-01T17:04:36;-2.10;81.00
42095;DHT22;27753;55.724;37.612;2023-03-01T17:07:05;-2.00;81.00
42095;DHT22;27753;55.724;37.612;2023-03-01T17:09:37;-2.00;81.00
42095;DHT22;27753;55.724;37.612;2023-03-01T17:12:04;-2.00;81.20
42095;DHT22;27753;55.724;37.612;2023-03-01T17:14:30;-2.00;81.30
42095;DHT22;27753;55.724;37.612;2023-03-01T17:16:56;-2.00;81.30
42095;DHT22;27753;55.724;37.612;2023-03-01T17:19:22;-1.90;81.00
42095;DHT22;27753;55.724;37.612;2023-03-01T17:21:48;-2.00;80.80
42095;DHT22;27753;55.724;37.612;2023-03-01T17:24:14;-2.00;80.80
42095;DHT22;27753;55.724;37.612;2023-03-01T17:26:40;-2.00;81.00
42095;DHT22;27753;55.724;37.612;2023-03-01T17:29:06;-2.00;81.00
42095;DHT22;27753;55.724;37.612;2023-03-01T17:31:33;-2.00;81.20
42095;DHT22;27753;55.724;37.612;2023-03-01T17:33:59;-2.00;81.20
42095;DHT22;27753;55.724;37.612;2023-03-01T17:36:25;-1.90;81.30
42095;DHT22;27753;55.724;37.612;2023-03-01T17:38:51;-1.90;81.30
42095;DHT22;27753;55.724;37.612;2023-03-01T17:41:20;-1.90;81.50
42095;DHT22;27753;55.724;37.612;2023-03-01T17:43:49;-1.90;81.60
42095;DHT22;27753;55.724;37.612;2023-03-01T17:46:15;-1.90;81.70